Time;durP1;ratioP1;P1;durP2;ratioP2;P2;SDS_P1;SDS_P2;PMS_P1;PMS_P2;Temp;Humidity;BMP_temperature;BMP_pressure;BME280_temperature;BME280_humidity;BME280_pressure;Samples;Min_cycle;Max_cycle;Signal;HPM_P1;HPM_P2
2023/09/21 00:00:44;;;;;;;3.47;2.05;;;23.10;97.00;;;;;;10089289;28;20036;-71
2023/09/21 00:05:35;;;;;;;3.13;1.75;;;23.20;97.00;;;;;;10087486;28;20418;-71
2023/09/21 00:10:29;;;;;;;1.83;1.70;;;23.30;96.70;;;;;;10083741;28;20072;-70
2023/09/21 00:15:20;;;;;;;6.10;1.80;;;23.20;96.80;;;;;;10083530;28;20375;-70
2023/09/21 00:20:12;;;;;;;3.65;1.58;;;23.20;96.80;;;;;;10089608;28;20072;-71
2023/09/21 00:25:04;;;;;;;2.75;1.58;;;23.10;96.90;;;;;;10097826;28;20037;-71
2023/09/21 00:29:55;;;;;;;3.83;1.85;;;22.90;97.00;;;;;;10094115;28;20079;-71
2023/09/21 00:34:49;;;;;;;4.63;2.10;;;22.90;97.10;;;;;;10090551;28;20403;-71
2023/09/21 00:39:40;;;;;;;4.93;1.40;;;22.90;97.10;;;;;;10090102;28;20094;-70
2023/09/21 00:44:30;;;;;;;1.73;1.40;;;22.90;97.30;;;;;;10087996;28;20028;-73
2023/09/21 00:49:21;;;;;;;2.25;1.75;;;22.70;97.50;;;;;;10091456;28;20029;-70
2023/09/21 00:54:14;;;;;;;1.90;1.25;;;22.60;97.80;;;;;;10083648;28;20418;-70
2023/09/21 00:59:06;;;;;;;2.78;2.13;;;22.50;98.10;;;;;;10097221;28;20521;-70
2023/09/21 01:03:59;;;;;;;4.18;1.70;;;22.50;97.90;;;;;;10089641;28;20037;-71
2023/09/21 01:08:50;;;;;;;3.35;1.80;;;22.50;98.20;;;;;;10087005;28;20469;-71
2023/09/21 01:13:41;;;;;;;5.05;1.98;;;22.40;98.30;;;;;;10084668;28;20067;-70
2023/09/21 01:18:33;;;;;;;3.83;1.67;;;22.70;98.00;;;;;;10096593;28;20036;-71
2023/09/21 01:23:45;;;;;;;3.92;1.90;;;23.00;97.50;;;;;;10114023;28;20056;-71
2023/09/21 01:28:37;;;;;;;2.75;1.70;;;22.70;98.00;;;;;;10090912;28;20025;-71
2023/09/21 01:33:27;;;;;;;1.85;1.38;;;22.80;97.80;;;;;;10095909;28;20131;-72
2023/09/21 01:38:19;;;;;;;3.05;1.58;;;22.70;97.90;;;;;;10093257;28;20104;-70
2023/09/21 01:43:14;;;;;;;4.22;1.98;;;22.50;98.20;;;;;;10092457;28;20582;-72
2023/09/21 01:48:08;;;;;;;3.83;1.30;;;22.40;98.40;;;;;;10096605;28;20060;-71
2023/09/21 01:52:59;;;;;;;4.17;1.60;;;22.40;98.50;;;;;;10087499;28;20036;-72
2023/09/21 01:57:49;;;;;;;3.85;1.90;;;22.50;98.50;;;;;;10095023;28;20025;-72
2023/09/21 02:02:40;;;;;;;2.90;1.80;;;22.80;98.00;;;;;;10085238;28;20068;-72
2023/09/21 02:07:31;;;;;;;2.55;1.58;;;22.60;98.30;;;;;;10087449;28;20028;-72
2023/09/21 02:12:24;;;;;;;4.63;2.08;;;22.60;98.30;;;;;;10083840;28;20040;-72
2023/09/21 02:17:14;;;;;;;2.95;1.58;;;22.70;98.20;;;;;;10073649;28;20033;-71
2023/09/21 02:22:07;;;;;;;3.72;1.60;;;22.90;97.90;;;;;;10083228;28;20457;-72
2023/09/21 02:26:58;;;;;;;3.42;1.48;;;22.80;97.90;;;;;;10087174;28;20391;-71
2023/09/21 02:31:49;;;;;;;2.15;1.52;;;22.80;97.90;;;;;;10086352;28;20038;-72
2023/09/21 02:36:40;;;;;;;2.67;1.85;;;22.60;98.20;;;;;;10084089;28;20495;-72
2023/09/21 02:41:30;;;;;;;3.78;1.58;;;22.60;98.30;;;;;;10086032;28;20057;-72
2023/09/21 02:46:21;;;;;;;2.33;1.40;;;22.70;98.20;;;;;;10085761;28;20405;-72
2023/09/21 02:51:12;;;;;;;1.83;1.50;;;22.80;98.10;;;;;;10075215;28;20041;-68
2023/09/21 02:56:03;;;;;;;2.22;1.48;;;22.60;98.30;;;;;;10092746;28;20021;-69
2023/09/21 03:00:54;;;;;;;1.90;1.42;;;22.80;98.10;;;;;;10088487;28;20033;-72
2023/09/21 03:05:47;;;;;;;1.88;1.40;;;22.80;98.10;;;;;;10076389;28;20557;-70
2023/09/21 03:10:37;;;;;;;3.00;1.52;;;22.60;98.30;;;;;;10080262;28;20041;-70
2023/09/21 03:15:29;;;;;;;3.85;1.30;;;22.50;98.50;;;;;;10083663;28;20057;-70
2023/09/21 03:20:37;;;;;;;2.70;1.73;;;22.70;98.30;;;;;;10081857;28;20036;-71
2023/09/21 03:25:32;;;;;;;2.70;2.03;;;22.50;98.50;;;;;;10089969;28;20033;-71
2023/09/21 03:30:24;;;;;;;2.83;1.87;;;22.60;98.50;;;;;;10091110;28;20041;-70
2023/09/21 03:35:14;;;;;;;2.40;1.35;;;22.70;98.60;;;;;;10087838;28;20025;-69
2023/09/21 03:40:06;;;;;;;3.45;1.60;;;22.80;98.30;;;;;;10084485;28;20048;-70
2023/09/21 03:44:57;;;;;;;2.20;1.35;;;22.60;98.40;;;;;;10080298;28;20148;-72
2023/09/21 03:49:47;;;;;;;2.55;2.00;;;22.70;98.20;;;;;;10084193;28;20589;-70
2023/09/21 03:54:40;;;;;;;2.15;1.15;;;22.80;98.10;;;;;;10074005;28;20021;-69
2023/09/21 03:59:32;;;;;;;2.85;1.20;;;22.90;98.00;;;;;;10090138;28;20100;-70
2023/09/21 04:04:23;;;;;;;2.67;2.10;;;22.80;98.40;;;;;;10088922;28;20053;-71
2023/09/21 04:09:16;;;;;;;3.65;1.38;;;22.60;98.30;;;;;;10081661;28;20040;-71
2023/09/21 04:14:06;;;;;;;3.28;1.70;;;22.70;98.20;;;;;;10081198;28;20021;-71
2023/09/21 04:18:57;;;;;;;3.75;2.20;;;22.70;98.10;;;;;;10082583;28;20036;-71
2023/09/21 04:23:48;;;;;;;2.40;1.70;;;22.70;97.90;;;;;;10075208;28;20032;-70
2023/09/21 04:28:39;;;;;;;2.50;1.50;;;22.70;97.90;;;;;;10091990;28;20320;-71
2023/09/21 04:33:29;;;;;;;1.98;1.38;;;22.60;98.00;;;;;;10084573;28;20041;-69
2023/09/21 04:38:20;;;;;;;3.13;1.60;;;22.60;97.90;;;;;;10089338;28;20494;-71
2023/09/21 04:43:12;;;;;;;3.08;1.50;;;22.40;98.20;;;;;;10091958;28;20029;-72
2023/09/21 04:48:04;;;;;;;2.28;1.92;;;22.60;98.00;;;;;;10094100;28;20049;-72
2023/09/21 04:52:54;;;;;;;2.90;1.50;;;22.30;98.40;;;;;;10100157;28;20099;-72
2023/09/21 04:57:45;;;;;;;2.28;1.58;;;22.30;98.40;;;;;;10096375;28;20033;-72
2023/09/21 05:02:36;;;;;;;3.72;1.38;;;22.30;98.50;;;;;;10090630;28;20123;-72
2023/09/21 05:07:27;;;;;;;2.88;1.83;;;22.30;98.50;;;;;;10090197;28;20029;-71
2023/09/21 05:12:18;;;;;;;2.28;1.67;;;22.30;98.70;;;;;;10087592;28;20040;-72
2023/09/21 05:17:10;;;;;;;2.17;1.40;;;22.30;98.60;;;;;;10081832;28;20537;-73
2023/09/21 05:22:01;;;;;;;5.43;1.75;;;22.40;98.60;;;;;;10079189;28;20182;-71
2023/09/21 05:26:53;;;;;;;2.92;1.50;;;22.30;98.70;;;;;;10097693;28;20079;-72
2023/09/21 05:31:44;;;;;;;3.75;1.83;;;22.30;98.80;;;;;;10087373;28;20029;-72
2023/09/21 05:36:34;;;;;;;2.85;1.88;;;22.30;98.80;;;;;;10090561;28;20040;-72
2023/09/21 05:41:25;;;;;;;6.80;1.90;;;22.20;98.90;;;;;;10090600;28;20466;-70
2023/09/21 05:46:15;;;;;;;3.80;1.73;;;22.20;99.00;;;;;;10089281;28;20028;-71
2023/09/21 05:51:08;;;;;;;4.50;2.00;;;22.10;99.10;;;;;;10080566;28;20037;-70
2023/09/21 05:56:00;;;;;;;6.00;1.90;;;22.20;99.20;;;;;;10074674;28;20028;-72
2023/09/21 06:00:52;;;;;;;4.35;1.70;;;22.30;99.10;;;;;;10093419;28;20522;-72
2023/09/21 06:05:45;;;;;;;2.50;1.77;;;22.30;99.10;;;;;;10085706;28;20033;-71
2023/09/21 06:10:35;;;;;;;3.88;1.88;;;22.30;99.10;;;;;;10084794;28;20083;-72
2023/09/21 06:15:26;;;;;;;4.95;2.55;;;22.40;99.00;;;;;;10077774;28;20091;-73
2023/09/21 06:20:20;;;;;;;4.60;1.80;;;22.50;99.00;;;;;;10071773;28;20106;-71
2023/09/21 06:25:13;;;;;;;3.65;2.22;;;22.30;99.20;;;;;;10081319;28;20021;-71
2023/09/21 06:30:07;;;;;;;3.30;1.92;;;22.30;99.30;;;;;;10093043;28;20064;-72
2023/09/21 06:34:59;;;;;;;2.92;1.52;;;22.40;99.20;;;;;;10090436;28;20032;-71
2023/09/21 06:39:49;;;;;;;4.15;2.83;;;22.40;99.50;;;;;;10085677;28;20412;-70
2023/09/21 06:44:40;;;;;;;2.97;1.85;;;22.50;99.40;;;;;;10087992;28;20031;-71
2023/09/21 06:49:31;;;;;;;2.92;1.70;;;22.50;99.20;;;;;;10090072;28;20044;-71
2023/09/21 06:54:23;;;;;;;3.95;2.55;;;22.60;99.20;;;;;;10091894;28;20025;-72
2023/09/21 06:59:14;;;;;;;4.78;1.65;;;22.50;99.20;;;;;;10094022;28;20033;-73
2023/09/21 07:04:05;;;;;;;4.45;1.98;;;22.40;99.30;;;;;;10091333;28;20045;-72
2023/09/21 07:08:57;;;;;;;5.72;1.63;;;22.40;99.40;;;;;;10079114;28;20060;-71
2023/09/21 07:13:49;;;;;;;28.05;15.68;;;22.40;99.40;;;;;;10077197;28;20064;-72
2023/09/21 07:18:39;;;;;;;13.98;7.68;;;22.40;99.40;;;;;;10071205;28;20029;-71
2023/09/21 07:23:31;;;;;;;8.52;5.18;;;22.40;99.50;;;;;;10078965;28;20040;-73
2023/09/21 07:28:21;;;;;;;8.18;4.82;;;22.60;99.60;;;;;;10088793;28;20059;-72
2023/09/21 07:33:12;;;;;;;5.63;2.92;;;22.50;99.70;;;;;;10087810;28;20235;-70
2023/09/21 07:38:02;;;;;;;4.95;2.58;;;22.50;99.90;;;;;;10080148;28;20107;-71
2023/09/21 07:42:53;;;;;;;5.85;3.28;;;22.60;99.80;;;;;;10090666;28;20029;-72
2023/09/21 07:47:45;;;;;;;6.43;3.13;;;22.70;99.80;;;;;;10087237;28;20037;-69
2023/09/21 07:52:36;;;;;;;8.63;3.72;;;22.70;99.90;;;;;;10086415;28;20280;-72
2023/09/21 07:57:27;;;;;;;4.78;2.30;;;22.80;99.90;;;;;;10091827;28;20029;-71
2023/09/21 08:02:19;;;;;;;4.70;2.50;;;22.70;99.90;;;;;;10090679;28;20410;-72
2023/09/21 08:07:09;;;;;;;4.15;2.63;;;22.70;99.90;;;;;;10086325;28;20409;-72
2023/09/21 08:12:00;;;;;;;5.53;3.20;;;22.70;99.90;;;;;;10088720;28;20049;-69
2023/09/21 08:16:53;;;;;;;3.13;2.63;;;22.70;99.90;;;;;;10076158;28;20092;-72
2023/09/21 08:21:44;;;;;;;3.45;2.25;;;22.70;99.90;;;;;;10081992;28;20487;-71
2023/09/21 08:26:36;;;;;;;5.35;1.90;;;22.80;99.90;;;;;;10098005;28;20037;-71
2023/09/21 08:31:27;;;;;;;3.83;2.30;;;22.90;99.90;;;;;;10105262;28;20043;-70
2023/09/21 08:36:18;;;;;;;4.13;1.67;;;22.90;99.90;;;;;;10092984;28;20475;-71
2023/09/21 08:41:09;;;;;;;3.55;1.92;;;23.00;99.90;;;;;;10087751;28;20033;-70
2023/09/21 08:45:59;;;;;;;4.38;1.90;;;22.90;99.90;;;;;;10093365;28;20033;-70
2023/09/21 08:50:50;;;;;;;3.92;2.45;;;22.70;99.90;;;;;;10082287;28;20059;-69
2023/09/21 08:55:42;;;;;;;3.78;2.03;;;22.80;99.90;;;;;;10086603;28;20478;-71
2023/09/21 09:00:34;;;;;;;4.43;2.70;;;22.80;99.90;;;;;;10090824;28;20537;-71
2023/09/21 09:05:26;;;;;;;4.00;2.00;;;22.90;99.90;;;;;;10086573;28;20037;-72
2023/09/21 09:10:18;;;;;;;3.08;1.80;;;22.90;99.90;;;;;;10093006;28;20061;-71
2023/09/21 09:15:09;;;;;;;3.67;2.00;;;23.00;99.90;;;;;;10081189;28;20364;-72
2023/09/21 09:20:02;;;;;;;2.40;1.90;;;23.10;99.90;;;;;;10082570;28;20064;-71
2023/09/21 09:24:53;;;;;;;4.97;3.13;;;23.10;99.90;;;;;;10090500;28;20111;-72
2023/09/21 09:29:48;;;;;;;3.20;1.85;;;23.10;99.90;;;;;;10094542;28;20135;-72
2023/09/21 09:34:38;;;;;;;3.55;2.00;;;23.20;99.90;;;;;;10093083;28;20072;-70
2023/09/21 09:39:29;;;;;;;3.53;1.83;;;23.20;99.90;;;;;;10093894;28;20082;-72
2023/09/21 09:44:22;;;;;;;6.55;2.03;;;23.30;99.90;;;;;;10090569;28;20029;-71
2023/09/21 09:49:14;;;;;;;5.85;2.83;;;23.30;99.90;;;;;;10079968;28;20107;-71
2023/09/21 09:54:08;;;;;;;5.10;2.70;;;23.40;99.90;;;;;;10088053;28;20036;-72
2023/09/21 09:59:02;;;;;;;3.08;1.70;;;23.40;99.90;;;;;;10085351;28;20061;-71
2023/09/21 10:03:54;;;;;;;6.22;1.95;;;23.40;99.90;;;;;;10091466;28;20055;-73
2023/09/21 10:08:46;;;;;;;4.32;2.45;;;23.50;99.90;;;;;;10085234;28;20112;-72
2023/09/21 10:13:51;;;;;;;2.65;1.90;;;23.50;99.90;;;;;;10079018;28;20037;-70
2023/09/21 10:18:43;;;;;;;4.93;3.05;;;23.60;99.90;;;;;;10076084;28;20030;-72
2023/09/21 10:23:35;;;;;;;7.25;4.22;;;23.70;99.90;;;;;;10091457;28;20044;-72
2023/09/21 10:28:28;;;;;;;5.13;2.45;;;23.80;99.90;;;;;;10090350;28;20506;-71
2023/09/21 10:33:20;;;;;;;3.40;2.05;;;23.90;99.90;;;;;;10080012;28;20499;-68
2023/09/21 10:38:19;;;;;;;6.00;2.33;;;24.00;99.90;;;;;;10079058;28;20056;-68
2023/09/21 10:43:38;;;;;;;4.13;2.00;;;24.00;99.90;;;;;;10084625;28;20042;-68
2023/09/21 10:48:29;;;;;;;3.80;2.25;;;24.00;99.90;;;;;;10083221;28;20025;-69
2023/09/21 10:53:20;;;;;;;4.03;1.70;;;24.00;99.90;;;;;;10077292;28;20150;-68
2023/09/21 10:58:10;;;;;;;3.08;1.70;;;24.00;99.90;;;;;;10091055;28;20108;-69
2023/09/21 11:03:02;;;;;;;5.18;2.40;;;24.00;99.90;;;;;;10071876;28;20352;-70
2023/09/21 11:07:54;;;;;;;4.15;1.60;;;24.00;99.90;;;;;;10077275;28;20025;-68
2023/09/21 11:12:45;;;;;;;5.18;1.83;;;24.10;99.90;;;;;;10074641;28;20446;-66
2023/09/21 11:17:36;;;;;;;4.00;1.75;;;24.10;99.90;;;;;;10084816;28;20029;-66
2023/09/21 11:22:26;;;;;;;2.88;1.73;;;24.10;99.90;;;;;;10076678;28;20036;-66
2023/09/21 11:27:18;;;;;;;4.45;1.85;;;24.10;99.90;;;;;;10091810;28;20499;-69
2023/09/21 11:32:13;;;;;;;2.42;2.00;;;24.20;99.90;;;;;;10081465;28;20045;-69
2023/09/21 11:37:05;;;;;;;6.28;2.00;;;24.20;99.90;;;;;;10073548;28;20128;-69
2023/09/21 11:41:57;;;;;;;3.30;1.77;;;24.30;99.90;;;;;;10078246;28;20404;-69
2023/09/21 11:46:48;;;;;;;3.95;1.92;;;24.30;99.90;;;;;;10084353;28;20029;-69
2023/09/21 11:51:43;;;;;;;7.32;3.08;;;24.50;99.90;;;;;;10082299;28;20069;-69
2023/09/21 11:56:35;;;;;;;;;;;24.60;99.90;;;;;;10082501;28;20029;-69
2023/09/21 12:01:28;;;;;;;2.38;1.52;;;24.70;99.90;;;;;;10091233;28;20014;-69
2023/09/21 12:06:18;;;;;;;3.08;1.58;;;24.80;99.90;;;;;;10086987;28;20143;-68
2023/09/21 12:11:09;;;;;;;1.92;1.35;;;24.90;99.90;;;;;;10089540;28;20488;-69
2023/09/21 12:16:00;;;;;;;2.08;1.50;;;25.10;99.90;;;;;;10089648;28;20036;-69
2023/09/21 12:20:51;;;;;;;2.70;1.88;;;25.10;99.60;;;;;;10086086;28;20037;-70
2023/09/21 12:25:42;;;;;;;2.30;0.98;;;25.20;99.40;;;;;;10088240;28;20565;-69
2023/09/21 12:30:33;;;;;;;2.20;1.00;;;25.30;99.20;;;;;;10091582;28;20099;-69
2023/09/21 12:35:25;;;;;;;1.73;1.10;;;25.40;99.00;;;;;;10094834;28;20094;-69
2023/09/21 12:40:17;;;;;;;1.65;1.15;;;25.30;98.80;;;;;;10092135;28;20053;-70
2023/09/21 12:45:09;;;;;;;1.55;1.42;;;25.40;98.70;;;;;;10090514;28;20072;-71
2023/09/21 12:50:00;;;;;;;1.90;1.00;;;25.40;98.50;;;;;;10092210;28;20040;-71
2023/09/21 12:54:51;;;;;;;3.42;1.13;;;25.40;98.30;;;;;;10085330;28;20026;-69
2023/09/21 12:59:41;;;;;;;4.13;1.52;;;25.40;98.20;;;;;;10091686;28;20491;-66
2023/09/21 13:04:33;;;;;;;2.28;1.42;;;25.40;98.10;;;;;;10087014;28;20207;-69
2023/09/21 13:09:24;;;;;;;1.33;1.20;;;25.40;97.90;;;;;;10090490;28;20037;-68
2023/09/21 13:14:14;;;;;;;2.40;1.40;;;25.40;97.80;;;;;;10089349;28;20111;-68
2023/09/21 13:19:06;;;;;;;1.48;0.88;;;25.50;97.70;;;;;;10090484;28;20087;-68
2023/09/21 13:23:57;;;;;;;2.50;1.42;;;25.50;97.70;;;;;;10091674;28;20079;-68
2023/09/21 13:28:48;;;;;;;1.83;1.00;;;25.50;97.60;;;;;;10085987;28;20103;-68
2023/09/21 13:33:39;;;;;;;1.77;0.95;;;25.50;97.50;;;;;;10092667;28;20453;-67
2023/09/21 13:38:30;;;;;;;2.20;0.90;;;25.50;97.40;;;;;;10089312;28;20099;-68
2023/09/21 13:43:23;;;;;;;1.10;0.88;;;25.60;97.30;;;;;;10089722;28;20033;-70
2023/09/21 13:48:15;;;;;;;1.50;1.02;;;25.70;97.20;;;;;;10088821;28;20018;-67
2023/09/21 13:53:05;;;;;;;2.67;1.20;;;25.80;97.10;;;;;;10082360;28;20071;-68
2023/09/21 13:57:56;;;;;;;1.77;1.00;;;25.90;97.10;;;;;;10081984;28;20163;-68
2023/09/21 14:02:48;;;;;;;1.30;0.77;;;25.90;97.00;;;;;;10093816;28;20090;-68
2023/09/21 14:07:39;;;;;;;2.70;0.77;;;26.00;97.00;;;;;;10070963;28;20017;-69
2023/09/21 14:12:29;;;;;;;1.40;0.98;;;26.20;97.00;;;;;;10069843;28;20458;-70
2023/09/21 14:17:20;;;;;;;4.00;1.60;;;26.50;96.80;;;;;;10065872;28;20029;-71
2023/09/21 14:22:13;;;;;;;3.30;1.10;;;26.40;96.80;;;;;;10093161;28;20051;-69
2023/09/21 14:27:04;;;;;;;1.48;1.00;;;26.20;96.90;;;;;;10079450;28;20016;-69
2023/09/21 14:31:55;;;;;;;0.95;0.90;;;26.10;96.90;;;;;;10085623;28;20044;-72
2023/09/21 14:36:45;;;;;;;3.75;1.70;;;26.10;96.80;;;;;;10088464;28;20032;-70
2023/09/21 14:41:36;;;;;;;2.50;1.13;;;26.10;96.90;;;;;;10081770;28;20303;-70
2023/09/21 14:46:27;;;;;;;4.53;2.28;;;26.10;96.90;;;;;;10082605;28;20020;-72
2023/09/21 14:51:17;;;;;;;1.95;1.15;;;26.10;96.90;;;;;;10080776;28;20041;-69
2023/09/21 14:56:08;;;;;;;2.55;1.00;;;26.10;96.90;;;;;;10085087;28;20035;-68
2023/09/21 15:00:59;;;;;;;1.20;1.00;;;26.10;96.90;;;;;;10088403;28;20032;-68
2023/09/21 15:05:51;;;;;;;2.30;1.00;;;26.00;96.80;;;;;;10084070;28;20033;-69
2023/09/21 15:10:42;;;;;;;1.27;1.10;;;26.00;96.80;;;;;;10078057;28;20052;-69
2023/09/21 15:15:32;;;;;;;1.55;0.77;;;26.00;96.70;;;;;;10088300;28;20403;-69
2023/09/21 15:20:23;;;;;;;3.15;1.00;;;25.90;96.60;;;;;;10085182;28;20398;-68
2023/09/21 15:25:15;;;;;;;0.80;0.60;;;25.90;96.50;;;;;;10082844;28;20029;-69
2023/09/21 15:30:06;;;;;;;3.60;1.13;;;25.90;96.50;;;;;;10093815;28;20052;-68
2023/09/21 15:34:57;;;;;;;1.35;0.98;;;25.90;96.40;;;;;;10093443;28;20021;-68
2023/09/21 15:39:48;;;;;;;2.42;0.80;;;25.90;96.40;;;;;;10090426;28;20558;-69
2023/09/21 15:44:38;;;;;;;1.13;0.77;;;25.90;96.30;;;;;;10090286;28;20025;-69
2023/09/21 15:49:29;;;;;;;1.33;0.70;;;26.00;96.30;;;;;;10089418;28;20048;-71
2023/09/21 15:54:20;;;;;;;3.17;0.90;;;26.10;96.20;;;;;;10090943;28;20100;-71
2023/09/21 15:59:11;;;;;;;1.50;0.77;;;25.90;96.20;;;;;;10089995;28;20040;-71
2023/09/21 16:04:05;;;;;;;1.85;1.00;;;25.90;96.20;;;;;;10092305;28;20037;-69
2023/09/21 16:08:55;;;;;;;2.45;1.15;;;25.80;96.30;;;;;;10091663;28;20028;-72
2023/09/21 16:13:46;;;;;;;2.03;1.30;;;25.80;96.30;;;;;;10092402;28;20040;-71
2023/09/21 16:18:36;;;;;;;2.92;1.08;;;25.80;96.30;;;;;;10085725;28;20048;-69
2023/09/21 16:23:27;;;;;;;2.15;0.80;;;25.80;96.30;;;;;;10092052;28;20452;-67
2023/09/21 16:28:18;;;;;;;3.53;1.27;;;25.80;96.30;;;;;;10078256;28;20032;-68
2023/09/21 16:33:08;;;;;;;2.13;1.45;;;25.90;96.40;;;;;;10097305;28;20040;-66
2023/09/21 16:38:00;;;;;;;1.88;1.30;;;25.80;96.40;;;;;;10096816;28;20029;-68
2023/09/21 16:42:51;;;;;;;2.65;1.55;;;25.70;96.50;;;;;;10099204;28;20033;-68
2023/09/21 16:47:41;;;;;;;3.15;1.98;;;25.70;96.50;;;;;;10091730;28;20029;-69
2023/09/21 16:52:32;;;;;;;1.95;1.30;;;25.70;96.80;;;;;;10096060;28;20094;-68
2023/09/21 16:57:23;;;;;;;3.40;2.13;;;25.70;96.60;;;;;;10097848;28;20036;-67
2023/09/21 17:02:13;;;;;;;2.88;1.63;;;25.60;96.80;;;;;;10092152;28;20055;-68
2023/09/21 17:07:05;;;;;;;5.10;1.90;;;25.60;97.00;;;;;;10090369;28;20037;-68
2023/09/21 17:11:56;;;;;;;2.08;1.40;;;25.50;97.10;;;;;;10086465;28;20172;-68
2023/09/21 17:16:47;;;;;;;2.45;1.67;;;25.30;97.40;;;;;;10087563;28;20029;-66
2023/09/21 17:21:38;;;;;;;3.65;1.10;;;24.80;97.80;;;;;;10085048;28;20041;-67
2023/09/21 17:26:29;;;;;;;3.25;1.00;;;24.10;98.90;;;;;;10093839;28;20025;-74
2023/09/21 17:31:20;;;;;;;1.50;0.57;;;21.90;99.90;;;;;;10095421;28;20124;-72
2023/09/21 17:36:12;;;;;;;1.90;0.52;;;20.60;99.90;;;;;;10090579;28;20032;-73
2023/09/21 17:41:06;;;;;;;1.17;0.52;;;20.30;99.90;;;;;;10089597;28;20645;-72
2023/09/21 17:45:57;;;;;;;3.60;0.85;;;20.20;99.90;;;;;;10089205;28;20453;-74
2023/09/21 17:50:48;;;;;;;2.85;0.73;;;20.20;99.90;;;;;;10080379;28;20044;-73
2023/09/21 17:55:38;;;;;;;1.10;0.70;;;20.30;99.90;;;;;;10081748;28;20040;-73
2023/09/21 18:00:31;;;;;;;1.08;0.70;;;20.20;99.90;;;;;;10091615;28;20403;-71
2023/09/21 18:05:22;;;;;;;1.27;0.70;;;20.20;99.90;;;;;;10073672;28;20131;-75
2023/09/21 18:10:15;;;;;;;1.25;0.60;;;20.20;99.90;;;;;;10075453;28;20579;-76
2023/09/21 18:15:09;;;;;;;1.92;0.70;;;20.10;99.90;;;;;;10073882;28;20030;-76
2023/09/21 18:19:59;;;;;;;1.80;1.33;;;20.20;99.90;;;;;;10083835;28;20236;-74
2023/09/21 18:24:50;;;;;;;1.05;0.60;;;20.50;99.90;;;;;;10092269;28;20587;-70
2023/09/21 18:29:41;;;;;;;1.92;0.90;;;20.40;99.90;;;;;;10082844;28;20037;-66
2023/09/21 18:34:31;;;;;;;0.90;0.50;;;20.40;99.90;;;;;;10086107;28;20391;-66
2023/09/21 18:39:23;;;;;;;1.38;0.60;;;20.30;99.90;;;;;;10091198;28;20029;-66
2023/09/21 18:44:14;;;;;;;1.60;0.80;;;20.50;99.90;;;;;;10084919;28;20025;-78
2023/09/21 18:49:04;;;;;;;0.85;0.57;;;20.40;99.90;;;;;;10087358;28;20554;-76
2023/09/21 18:53:55;;;;;;;2.13;1.00;;;20.50;99.90;;;;;;10084977;28;20502;-75
2023/09/21 18:58:45;;;;;;;1.73;1.00;;;20.60;99.90;;;;;;10088792;28;20063;-74
2023/09/21 19:03:36;;;;;;;1.25;0.68;;;20.60;99.90;;;;;;10088758;28;20056;-76
2023/09/21 19:08:27;;;;;;;1.13;0.63;;;20.70;99.90;;;;;;10080193;28;20104;-75
2023/09/21 19:13:18;;;;;;;1.80;0.90;;;20.80;99.90;;;;;;10074665;28;21093;-81
2023/09/21 19:18:09;;;;;;;1.17;0.50;;;20.70;99.90;;;;;;10082310;28;20479;-77
2023/09/21 19:23:01;;;;;;;0.93;0.50;;;20.70;99.90;;;;;;10093129;28;20082;-78
2023/09/21 19:27:52;;;;;;;1.50;0.90;;;20.70;99.90;;;;;;10092102;28;20475;-78
2023/09/21 19:32:42;;;;;;;2.10;1.05;;;20.80;99.90;;;;;;10092011;28;20037;-75
2023/09/21 19:37:33;;;;;;;1.88;0.80;;;20.80;99.90;;;;;;10089100;28;20043;-76
2023/09/21 19:42:26;;;;;;;2.20;1.10;;;20.60;99.90;;;;;;10088217;28;20027;-73
2023/09/21 19:47:17;;;;;;;4.40;0.90;;;20.60;99.90;;;;;;10074537;28;20034;-69
2023/09/21 19:52:08;;;;;;;1.58;0.45;;;20.60;99.90;;;;;;10080084;28;20045;-78
2023/09/21 19:56:59;;;;;;;1.80;0.93;;;20.60;99.90;;;;;;10086903;28;20025;-75
2023/09/21 20:01:50;;;;;;;2.28;0.93;;;20.60;99.90;;;;;;10088262;28;20569;-74
2023/09/21 20:06:46;;;;;;;1.42;0.70;;;20.50;99.90;;;;;;10090761;28;20112;-73
2023/09/21 20:11:40;;;;;;;0.77;0.40;;;20.50;99.90;;;;;;10087864;28;20060;-77
2023/09/21 20:16:30;;;;;;;0.88;0.40;;;20.40;99.90;;;;;;10079040;28;20087;-75
2023/09/21 20:21:21;;;;;;;0.32;0.32;;;20.40;99.90;;;;;;10097190;28;20025;-71
2023/09/21 20:26:12;;;;;;;4.25;0.80;;;20.40;99.90;;;;;;10094599;28;20021;-80
2023/09/21 20:31:03;;;;;;;0.32;0.30;;;20.30;99.90;;;;;;10100227;28;20033;-77
2023/09/21 20:35:57;;;;;;;3.10;0.70;;;20.30;99.90;;;;;;10096683;28;20110;-79
2023/09/21 20:40:48;;;;;;;2.15;0.50;;;20.30;99.90;;;;;;10089139;28;20033;-72
2023/09/21 20:45:39;;;;;;;2.72;0.70;;;20.30;99.90;;;;;;10101687;28;20025;-76
2023/09/21 20:50:30;;;;;;;1.00;0.45;;;20.30;99.90;;;;;;10101764;28;20123;-69
2023/09/21 20:55:23;;;;;;;1.08;0.60;;;20.20;99.90;;;;;;10100455;28;20107;-77
2023/09/21 21:00:22;;;;;;;0.68;0.47;;;20.20;99.90;;;;;;10088353;28;20029;-74
2023/09/21 21:05:13;;;;;;;0.77;0.40;;;20.30;99.90;;;;;;10092323;28;20057;-69
2023/09/21 21:10:05;;;;;;;1.25;0.50;;;20.30;99.90;;;;;;10091698;28;20522;-70
2023/09/21 21:14:56;;;;;;;0.65;0.50;;;20.40;99.90;;;;;;10080480;28;20542;-75
2023/09/21 21:19:47;;;;;;;0.85;0.35;;;20.10;99.90;;;;;;10080974;28;20498;-71
2023/09/21 21:24:38;;;;;;;3.25;0.60;;;20.10;99.90;;;;;;10090673;28;20040;-71
2023/09/21 21:29:29;;;;;;;1.33;0.73;;;20.20;99.90;;;;;;10090135;28;20353;-76
2023/09/21 21:34:22;;;;;;;1.25;0.85;;;20.10;99.90;;;;;;10095581;28;20027;-76
2023/09/21 21:39:13;;;;;;;1.08;0.57;;;20.10;99.90;;;;;;10099218;28;20096;-72
2023/09/21 21:44:09;;;;;;;1.17;0.60;;;20.10;99.90;;;;;;10097464;28;20032;-69
2023/09/21 21:48:59;;;;;;;2.45;0.63;;;20.00;99.90;;;;;;10076755;28;20128;-73
2023/09/21 21:53:50;;;;;;;0.52;0.40;;;20.00;99.90;;;;;;10077230;28;20139;-71
2023/09/21 21:58:41;;;;;;;1.23;0.65;;;20.00;99.90;;;;;;10094133;28;20045;-76
2023/09/21 22:03:31;;;;;;;0.70;0.40;;;20.00;99.90;;;;;;10093189;28;20490;-76
2023/09/21 22:08:22;;;;;;;3.42;0.63;;;19.90;99.90;;;;;;10079938;28;20036;-73
2023/09/21 22:13:13;;;;;;;0.47;0.40;;;19.80;99.90;;;;;;10085109;28;20044;-79
2023/09/21 22:18:05;;;;;;;0.73;0.47;;;19.70;99.90;;;;;;10076512;28;20116;-78
2023/09/21 22:22:56;;;;;;;1.58;0.40;;;19.60;99.90;;;;;;10076896;28;20471;-79
2023/09/21 22:27:46;;;;;;;0.55;0.45;;;19.50;99.90;;;;;;10092754;28;20036;-73
2023/09/21 22:32:37;;;;;;;0.88;0.52;;;19.50;99.90;;;;;;10093078;28;20110;-71
2023/09/21 22:37:27;;;;;;;1.60;0.57;;;19.40;99.90;;;;;;10084942;28;20513;-75
2023/09/21 22:42:18;;;;;;;0.88;0.50;;;19.50;99.90;;;;;;10084247;28;20029;-75
2023/09/21 22:47:09;;;;;;;1.83;0.40;;;19.50;99.90;;;;;;10077526;28;20036;-76
2023/09/21 22:51:59;;;;;;;1.60;0.50;;;19.40;99.90;;;;;;10076173;28;20496;-74
2023/09/21 22:56:50;;;;;;;1.38;0.60;;;19.30;99.90;;;;;;10080825;28;20040;-76
2023/09/21 23:01:41;;;;;;;0.88;0.30;;;19.30;99.90;;;;;;10091050;28;20072;-77
2023/09/21 23:06:33;;;;;;;0.57;0.28;;;19.30;99.90;;;;;;10082333;28;20059;-72
2023/09/21 23:11:24;;;;;;;0.77;0.40;;;19.30;99.90;;;;;;10079041;28;20287;-77
2023/09/21 23:16:15;;;;;;;0.38;0.35;;;19.30;99.90;;;;;;10074510;28;20652;-78
2023/09/21 23:21:09;;;;;;;0.90;0.50;;;19.30;99.90;;;;;;10082630;28;20115;-78
2023/09/21 23:26:00;;;;;;;2.63;0.70;;;19.20;99.90;;;;;;10082528;28;20494;-78
2023/09/21 23:30:51;;;;;;;2.53;1.17;;;19.10;99.90;;;;;;10087840;28;20103;-75
2023/09/21 23:35:42;;;;;;;1.33;0.55;;;19.10;99.90;;;;;;10081819;28;20025;-77
2023/09/21 23:40:32;;;;;;;0.60;0.40;;;19.10;99.90;;;;;;10096427;28;20376;-77
2023/09/21 23:45:26;;;;;;;0.35;0.30;;;19.00;99.90;;;;;;10090663;28;20112;-76
2023/09/21 23:50:19;;;;;;;1.67;0.57;;;19.00;99.90;;;;;;10088576;28;20036;-74
2023/09/21 23:55:10;;;;;;;3.33;0.95;;;19.00;99.90;;;;;;10078993;28;20025;-77
